Time;durP1;ratioP1;P1;durP2;ratioP2;P2;SDS_P1;SDS_P2;PMS_P1;PMS_P2;Temp;Humidity;BMP_temperature;BMP_pressure;BME280_temperature;BME280_humidity;BME280_pressure;Samples;Min_cycle;Max_cycle;Signal;HPM_P1;HPM_P2
2022/03/22 00:00:33;;;;;;;3.60;3.00;;;20.20;33.90;;;;;;5093977;28;20075;-82
2022/03/22 00:02:59;;;;;;;3.42;3.13;;;20.20;33.90;;;;;;5075642;28;20105;-82
2022/03/22 00:05:25;;;;;;;2.92;2.70;;;20.20;33.90;;;;;;5093723;28;20056;-82
2022/03/22 00:07:51;;;;;;;3.00;2.70;;;20.20;34.00;;;;;;5072559;28;20095;-82
2022/03/22 00:10:17;;;;;;;3.08;2.78;;;20.20;34.00;;;;;;5058268;28;20083;-82
2022/03/22 00:12:43;;;;;;;3.55;3.25;;;20.20;33.90;;;;;;5093561;28;20052;-82
2022/03/22 00:15:13;;;;;;;3.45;3.15;;;20.20;33.90;;;;;;5093838;28;20072;-82
2022/03/22 00:17:39;;;;;;;3.28;2.97;;;20.20;33.90;;;;;;5073343;28;20569;-82
2022/03/22 00:20:06;;;;;;;3.38;2.97;;;20.20;33.90;;;;;;5075300;28;20060;-82
2022/03/22 00:22:33;;;;;;;2.97;2.67;;;20.20;33.90;;;;;;5093508;28;20125;-82
2022/03/22 00:24:59;;;;;;;3.75;3.30;;;20.20;33.90;;;;;;5093475;28;20048;-82
2022/03/22 00:27:24;;;;;;;3.17;2.88;;;20.20;33.90;;;;;;5093454;28;20073;-82
2022/03/22 00:29:50;;;;;;;3.67;3.22;;;20.20;33.90;;;;;;5093448;28;20083;-82
2022/03/22 00:32:17;;;;;;;3.13;2.83;;;20.20;34.00;;;;;;5093651;28;20051;-82
2022/03/22 00:34:44;;;;;;;3.47;3.17;;;20.20;34.00;;;;;;5093660;28;20094;-82
2022/03/22 00:37:14;;;;;;;3.33;3.03;;;20.20;34.00;;;;;;5093321;28;20428;-82
2022/03/22 00:39:44;;;;;;;3.28;2.97;;;20.20;34.00;;;;;;5093171;28;20052;-82
2022/03/22 00:42:11;;;;;;;3.53;3.13;;;20.20;34.00;;;;;;5093268;28;20055;-82
2022/03/22 00:44:38;;;;;;;3.38;3.05;;;20.20;34.00;;;;;;5093239;28;20155;-82
2022/03/22 00:47:08;;;;;;;2.88;2.65;;;20.20;34.00;;;;;;5073982;28;20045;-82
2022/03/22 00:49:34;;;;;;;3.10;2.80;;;20.20;34.00;;;;;;5073589;28;20056;-82
2022/03/22 00:52:01;;;;;;;3.20;2.90;;;20.20;34.00;;;;;;5093100;28;20127;-82
2022/03/22 00:54:28;;;;;;;4.25;3.38;;;20.20;34.00;;;;;;5093055;28;20051;-82
2022/03/22 00:56:54;;;;;;;3.25;2.90;;;20.20;34.00;;;;;;5092843;28;20063;-82
2022/03/22 01:02:05;;;;;;;3.40;3.10;;;20.20;33.90;;;;;;5092872;28;20119;-82
2022/03/22 01:04:30;;;;;;;3.03;2.72;;;20.20;34.00;;;;;;5092998;28;20125;-83
2022/03/22 01:06:56;;;;;;;3.00;2.80;;;20.20;34.00;;;;;;5093247;28;20058;-82
2022/03/22 01:09:22;;;;;;;3.05;2.80;;;20.20;33.90;;;;;;5093494;28;20087;-82
2022/03/22 01:11:47;;;;;;;2.78;2.58;;;20.20;34.00;;;;;;5092670;28;20426;-82
2022/03/22 01:14:13;;;;;;;3.63;2.80;;;20.20;34.00;;;;;;5093101;28;20075;-82
2022/03/22 01:16:39;;;;;;;3.30;3.00;;;20.20;34.00;;;;;;5092733;28;20052;-82
2022/03/22 01:19:06;;;;;;;3.17;2.88;;;20.20;34.00;;;;;;5092273;28;20116;-82
2022/03/22 01:21:32;;;;;;;3.40;3.10;;;20.20;34.00;;;;;;5092535;28;20056;-82
2022/03/22 01:23:59;;;;;;;2.88;2.58;;;20.20;34.00;;;;;;5074518;28;20407;-82
2022/03/22 01:26:25;;;;;;;3.33;3.03;;;20.20;34.00;;;;;;5092487;28;20134;-82
2022/03/22 01:28:51;;;;;;;2.97;2.55;;;20.20;34.00;;;;;;5092616;28;20044;-82
2022/03/22 01:31:16;;;;;;;3.22;2.80;;;20.20;34.00;;;;;;5074357;28;20110;-82
2022/03/22 01:33:43;;;;;;;3.35;3.05;;;20.20;34.00;;;;;;5092584;28;20055;-82
2022/03/22 01:36:08;;;;;;;3.10;2.80;;;20.20;34.00;;;;;;5074823;28;20048;-82
2022/03/22 01:38:34;;;;;;;2.70;2.50;;;20.20;34.00;;;;;;5074131;28;20072;-82
2022/03/22 01:41:00;;;;;;;3.65;2.88;;;20.20;34.00;;;;;;5092441;28;20041;-82
2022/03/22 01:43:26;;;;;;;4.07;3.08;;;20.20;34.50;;;;;;5092325;28;20059;-82
2022/03/22 01:45:51;;;;;;;3.28;2.97;;;20.10;34.00;;;;;;5092456;28;20062;-82
2022/03/22 01:48:17;;;;;;;3.97;3.17;;;20.10;33.90;;;;;;5092221;28;20044;-82
2022/03/22 01:50:43;;;;;;;3.30;3.00;;;20.20;34.00;;;;;;5092293;28;20040;-82
2022/03/22 01:53:10;;;;;;;3.08;2.72;;;20.20;34.00;;;;;;5092311;28;20047;-82
2022/03/22 01:55:38;;;;;;;3.47;3.10;;;20.20;34.00;;;;;;5057487;28;20079;-82
2022/03/22 01:58:04;;;;;;;3.38;3.08;;;20.20;34.00;;;;;;5092169;28;20503;-82
2022/03/22 02:00:29;;;;;;;3.42;3.13;;;20.20;34.00;;;;;;5092216;28;20113;-83
2022/03/22 02:05:57;;;;;;;3.00;2.70;;;20.20;34.00;;;;;;5092547;28;20048;-82
2022/03/22 02:08:26;;;;;;;3.50;3.20;;;20.20;34.00;;;;;;5074076;28;20503;-82
2022/03/22 02:10:53;;;;;;;3.13;2.83;;;20.10;33.90;;;;;;5092114;28;20074;-82
2022/03/22 02:13:18;;;;;;;2.83;2.63;;;20.20;33.90;;;;;;5092359;28;20048;-82
2022/03/22 02:15:48;;;;;;;3.58;3.20;;;20.20;33.90;;;;;;5073643;28;20407;-83
2022/03/22 02:18:15;;;;;;;3.13;2.70;;;20.20;34.00;;;;;;5091791;28;20052;-82
2022/03/22 02:20:42;;;;;;;2.92;2.63;;;20.20;33.90;;;;;;5091678;28;20075;-82
2022/03/22 02:23:18;;;;;;;3.53;3.10;;;20.20;33.90;;;;;;5091909;28;20048;-83
2022/03/22 02:25:44;;;;;;;3.28;2.88;;;20.20;33.90;;;;;;5092007;28;20056;-82
2022/03/22 02:28:12;;;;;;;4.72;3.10;;;20.20;33.90;;;;;;5091938;28;20147;-82
2022/03/22 02:30:38;;;;;;;3.60;3.30;;;20.20;33.90;;;;;;5074091;28;20040;-82
2022/03/22 02:33:05;;;;;;;2.70;2.50;;;20.20;33.90;;;;;;5095214;28;20106;-83
2022/03/22 02:35:30;;;;;;;3.20;2.88;;;20.20;33.90;;;;;;5095233;28;20408;-82
2022/03/22 02:37:57;;;;;;;3.08;2.70;;;20.20;33.90;;;;;;5095397;28;20056;-82
2022/03/22 02:40:25;;;;;;;3.25;2.95;;;20.20;33.90;;;;;;5076125;28;20060;-83
2022/03/22 02:42:53;;;;;;;3.47;2.95;;;20.20;34.50;;;;;;5075895;28;20052;-82
2022/03/22 02:45:21;;;;;;;3.53;3.22;;;20.20;33.90;;;;;;5094845;28;20056;-82
2022/03/22 02:47:50;;;;;;;2.80;2.60;;;20.20;33.90;;;;;;5075097;28;20056;-82
2022/03/22 02:50:21;;;;;;;3.05;2.80;;;20.20;33.90;;;;;;5075008;28;20133;-82
2022/03/22 02:52:50;;;;;;;3.20;2.90;;;20.20;33.90;;;;;;5041825;28;20075;-82
2022/03/22 02:55:15;;;;;;;3.13;2.72;;;20.20;33.90;;;;;;5076489;28;20059;-82
2022/03/22 02:57:43;;;;;;;2.80;2.60;;;20.20;33.90;;;;;;5094752;28;20555;-82
2022/03/22 03:00:11;;;;;;;2.83;2.63;;;20.20;33.90;;;;;;5094611;28;20067;-82
2022/03/22 03:02:42;;;;;;;3.00;2.80;;;20.20;33.90;;;;;;5094629;28;20145;-83
2022/03/22 03:05:08;;;;;;;2.92;2.72;;;20.20;33.90;;;;;;5074702;28;20054;-82
2022/03/22 03:07:34;;;;;;;3.35;3.05;;;20.20;33.90;;;;;;5059784;28;20047;-82
2022/03/22 03:09:59;;;;;;;3.15;2.85;;;20.20;33.90;;;;;;5075662;28;20076;-82
2022/03/22 03:12:25;;;;;;;3.05;2.75;;;20.20;33.90;;;;;;5094703;28;20055;-82
2022/03/22 03:14:51;;;;;;;3.15;2.85;;;20.20;33.90;;;;;;5094566;28;20059;-83
2022/03/22 03:17:17;;;;;;;3.05;2.75;;;20.20;33.90;;;;;;5075662;28;20063;-82
2022/03/22 03:19:43;;;;;;;3.20;2.90;;;20.10;33.80;;;;;;5094534;28;20055;-82
2022/03/22 03:22:09;;;;;;;3.10;2.80;;;20.20;33.90;;;;;;5094471;28;20059;-82
2022/03/22 03:24:35;;;;;;;3.10;2.80;;;20.20;33.90;;;;;;5094546;28;20435;-82
2022/03/22 03:27:01;;;;;;;3.00;2.70;;;20.20;34.40;;;;;;5094455;28;20105;-82
2022/03/22 03:29:27;;;;;;;3.47;2.97;;;20.20;33.80;;;;;;5074345;28;20518;-82
2022/03/22 03:31:53;;;;;;;3.00;2.70;;;20.20;33.80;;;;;;5076160;28;20127;-82
2022/03/22 03:34:19;;;;;;;2.70;2.50;;;20.30;33.80;;;;;;5076193;28;20055;-82
2022/03/22 03:36:45;;;;;;;3.45;2.60;;;20.30;33.70;;;;;;5076227;28;20400;-82
2022/03/22 03:39:11;;;;;;;3.15;2.85;;;20.30;33.70;;;;;;5094444;28;20056;-82
2022/03/22 03:47:09;;;;;;;2.70;2.50;;;20.40;33.60;;;;;;5075860;28;20052;-82
2022/03/22 03:49:40;;;;;;;2.83;2.63;;;20.40;33.50;;;;;;5076227;28;20109;-82
2022/03/22 03:52:07;;;;;;;3.05;2.75;;;20.40;33.50;;;;;;5094066;28;20480;-82
2022/03/22 03:54:34;;;;;;;3.30;2.90;;;20.50;33.50;;;;;;5094283;28;20054;-82
2022/03/22 03:57:00;;;;;;;3.00;2.75;;;20.40;33.50;;;;;;5093760;28;20082;-82
2022/03/22 03:59:26;;;;;;;2.63;2.42;;;20.50;33.50;;;;;;5093911;28;20055;-83
2022/03/22 04:01:52;;;;;;;2.67;2.47;;;20.50;33.50;;;;;;5093894;28;20052;-83
2022/03/22 04:04:18;;;;;;;2.78;2.58;;;20.50;33.40;;;;;;5093632;28;20552;-82
2022/03/22 04:06:45;;;;;;;2.97;2.67;;;20.60;33.40;;;;;;5093806;28;20052;-82
2022/03/22 04:09:11;;;;;;;2.72;2.53;;;20.60;33.40;;;;;;5075627;28;20107;-82
2022/03/22 04:11:38;;;;;;;3.50;2.88;;;20.60;33.40;;;;;;5093675;28;20144;-82
2022/03/22 04:14:04;;;;;;;3.13;2.83;;;20.60;33.30;;;;;;5075586;28;20063;-82
2022/03/22 04:16:30;;;;;;;3.30;3.00;;;20.60;33.30;;;;;;5073514;28;20044;-82
2022/03/22 04:18:56;;;;;;;3.20;2.90;;;20.70;33.30;;;;;;5074751;28;20048;-82
2022/03/22 04:21:22;;;;;;;3.13;2.83;;;20.70;33.30;;;;;;5074353;28;20049;-82
2022/03/22 04:23:48;;;;;;;2.95;2.65;;;20.70;33.20;;;;;;5093563;28;20074;-82
2022/03/22 04:26:13;;;;;;;2.88;2.58;;;20.70;33.20;;;;;;5093489;28;20048;-82
2022/03/22 04:34:08;;;;;;;2.55;2.35;;;20.80;33.20;;;;;;5074814;28;20139;-83
2022/03/22 04:36:35;;;;;;;2.72;2.50;;;20.80;33.10;;;;;;5073320;28;20083;-82
2022/03/22 04:39:01;;;;;;;3.15;2.85;;;20.80;33.10;;;;;;5093323;28;20059;-83
2022/03/22 04:41:27;;;;;;;2.70;2.50;;;20.90;33.10;;;;;;5075124;28;20515;-83
2022/03/22 04:43:53;;;;;;;2.58;2.38;;;20.90;33.10;;;;;;5093150;28;20059;-83
2022/03/22 04:46:19;;;;;;;3.00;2.70;;;20.90;33.10;;;;;;5093278;28;20052;-82
2022/03/22 04:48:45;;;;;;;2.80;2.55;;;20.90;33.10;;;;;;5093109;28;20067;-82
2022/03/22 04:56:48;;;;;;;3.20;2.90;;;20.90;33.10;;;;;;5092858;28;20132;-82
2022/03/22 04:59:19;;;;;;;2.80;2.60;;;20.80;33.00;;;;;;5074676;28;20151;-83
2022/03/22 05:01:45;;;;;;;3.03;2.72;;;20.90;33.10;;;;;;5093053;28;20063;-83
2022/03/22 05:04:11;;;;;;;2.88;2.63;;;20.90;33.10;;;;;;5092925;28;20044;-82
2022/03/22 05:06:38;;;;;;;3.15;2.63;;;20.80;33.10;;;;;;5092755;28;20055;-82
2022/03/22 05:09:07;;;;;;;3.15;2.85;;;20.90;33.20;;;;;;5092848;28;20048;-83
2022/03/22 05:11:33;;;;;;;2.78;2.50;;;20.80;33.10;;;;;;5091534;28;20047;-82
2022/03/22 05:14:00;;;;;;;2.67;2.47;;;20.80;33.10;;;;;;5073895;28;20060;-82
2022/03/22 05:16:26;;;;;;;3.30;3.00;;;20.80;33.10;;;;;;5092597;28;20154;-82
2022/03/22 05:18:54;;;;;;;3.35;3.05;;;20.80;33.20;;;;;;5092781;28;20126;-82
2022/03/22 05:21:20;;;;;;;3.08;2.88;;;20.80;33.20;;;;;;5074592;28;20040;-82
2022/03/22 05:23:45;;;;;;;3.67;3.17;;;20.80;33.10;;;;;;5092699;28;20056;-83
2022/03/22 05:26:12;;;;;;;3.03;2.72;;;20.80;33.20;;;;;;5092617;28;20108;-82
2022/03/22 05:28:38;;;;;;;2.90;2.63;;;20.80;33.20;;;;;;5074274;28;20047;-82
2022/03/22 05:31:05;;;;;;;3.55;3.08;;;20.80;33.20;;;;;;5074192;28;20548;-82
2022/03/22 05:33:31;;;;;;;2.88;2.67;;;20.80;33.10;;;;;;5092490;28;20056;-82
2022/03/22 05:35:56;;;;;;;2.80;2.60;;;20.80;33.20;;;;;;5074239;28;20048;-82
2022/03/22 05:38:25;;;;;;;3.17;2.83;;;20.80;33.10;;;;;;5092431;28;20052;-82
2022/03/22 05:40:54;;;;;;;2.92;2.63;;;20.80;33.20;;;;;;5093053;28;20156;-82
2022/03/22 05:43:20;;;;;;;3.70;3.40;;;20.80;33.20;;;;;;5092438;28;20102;-82
2022/03/22 05:45:48;;;;;;;3.20;2.90;;;20.80;33.20;;;;;;5092647;28;20048;-82
2022/03/22 05:48:17;;;;;;;3.20;2.90;;;20.80;33.10;;;;;;5092450;28;20470;-83
2022/03/22 05:50:44;;;;;;;3.40;3.10;;;20.80;33.10;;;;;;5092307;28;20093;-82
2022/03/22 05:53:13;;;;;;;3.50;3.08;;;20.80;33.10;;;;;;5092289;28;20511;-83
2022/03/22 05:55:41;;;;;;;2.58;2.38;;;20.80;33.00;;;;;;5092151;28;20055;-82
2022/03/22 05:58:08;;;;;;;3.00;2.70;;;20.80;33.00;;;;;;5092236;28;20085;-83
2022/03/22 06:00:36;;;;;;;2.85;2.63;;;20.90;33.00;;;;;;5092147;28;20040;-82
2022/03/22 06:03:02;;;;;;;3.15;2.85;;;20.90;33.00;;;;;;5073834;28;20488;-82
2022/03/22 06:05:28;;;;;;;2.85;2.58;;;20.90;33.00;;;;;;5092268;28;20059;-82
2022/03/22 06:07:55;;;;;;;3.05;2.75;;;20.90;33.00;;;;;;5076676;28;20066;-82
2022/03/22 06:10:21;;;;;;;2.72;2.40;;;20.90;33.00;;;;;;5095212;28;20058;-82
2022/03/22 06:12:49;;;;;;;2.72;2.53;;;21.00;32.90;;;;;;5095286;28;20044;-83
2022/03/22 06:15:22;;;;;;;2.78;2.58;;;21.00;32.90;;;;;;5076635;28;20044;-83
2022/03/22 06:17:57;;;;;;;2.72;2.50;;;21.00;32.80;;;;;;5095087;28;20389;-82
2022/03/22 06:20:36;;;;;;;2.47;2.28;;;21.10;32.80;;;;;;5094244;28;20052;-82
2022/03/22 06:23:04;;;;;;;2.75;2.50;;;21.10;32.70;;;;;;5095517;28;20044;-82
2022/03/22 06:25:31;;;;;;;3.28;2.67;;;21.10;32.70;;;;;;5095389;28;20177;-83
2022/03/22 06:27:58;;;;;;;3.25;2.95;;;21.20;32.60;;;;;;5058304;28;20052;-83
2022/03/22 06:30:25;;;;;;;2.60;2.40;;;21.20;32.60;;;;;;5094846;28;20101;-83
2022/03/22 06:32:54;;;;;;;2.92;2.42;;;21.20;32.50;;;;;;5094895;28;20060;-82
2022/03/22 06:35:22;;;;;;;2.83;2.45;;;21.20;32.50;;;;;;5075305;28;20496;-82
2022/03/22 06:37:48;;;;;;;2.95;2.65;;;21.30;32.50;;;;;;5094759;28;20051;-82
2022/03/22 06:40:16;;;;;;;2.63;2.42;;;21.30;32.50;;;;;;5076094;28;20052;-82
2022/03/22 06:42:43;;;;;;;2.67;2.47;;;21.30;32.40;;;;;;5094788;28;20062;-82
2022/03/22 06:45:10;;;;;;;2.70;2.50;;;21.30;32.30;;;;;;5076587;28;20048;-83
2022/03/22 06:47:37;;;;;;;3.28;2.97;;;21.40;32.30;;;;;;5094886;28;20063;-82
2022/03/22 06:50:03;;;;;;;2.90;2.70;;;21.40;32.30;;;;;;5095060;28;20048;-82
2022/03/22 06:52:29;;;;;;;2.97;2.67;;;21.40;32.20;;;;;;5094761;28;20056;-82
2022/03/22 06:54:55;;;;;;;2.70;2.50;;;21.50;32.20;;;;;;5094712;28;20101;-82
2022/03/22 06:57:21;;;;;;;2.83;2.63;;;21.50;32.10;;;;;;5094655;28;20047;-82
2022/03/22 06:59:46;;;;;;;2.60;2.40;;;21.60;32.10;;;;;;5076294;28;20044;-82
2022/03/22 07:02:12;;;;;;;2.95;2.75;;;21.60;32.10;;;;;;5094668;28;20433;-82
2022/03/22 07:04:37;;;;;;;2.63;2.40;;;21.70;32.00;;;;;;5094328;28;20085;-82
2022/03/22 07:07:04;;;;;;;2.65;2.45;;;21.70;32.00;;;;;;5075924;28;20408;-82
2022/03/22 07:09:29;;;;;;;2.88;2.67;;;21.70;32.00;;;;;;5094007;28;20066;-82
2022/03/22 07:11:56;;;;;;;2.53;2.33;;;21.70;31.90;;;;;;5075306;28;20115;-82
2022/03/22 07:14:27;;;;;;;2.63;2.30;;;21.80;31.90;;;;;;5094023;28;20056;-81
2022/03/22 07:16:53;;;;;;;2.60;2.40;;;21.80;31.90;;;;;;5092024;28;20084;-82
2022/03/22 07:19:22;;;;;;;3.17;2.70;;;21.80;31.90;;;;;;5093895;28;20130;-82
2022/03/22 07:21:49;;;;;;;3.00;2.70;;;21.90;31.80;;;;;;5093774;28;20052;-82
2022/03/22 07:24:17;;;;;;;2.97;2.63;;;21.90;31.80;;;;;;5094357;28;20052;-82
2022/03/22 07:26:42;;;;;;;2.92;2.70;;;21.90;31.80;;;;;;5075456;28;20403;-82
2022/03/22 07:29:08;;;;;;;2.92;2.70;;;21.90;31.80;;;;;;5093589;28;20056;-82
2022/03/22 07:31:37;;;;;;;3.25;2.95;;;21.90;31.80;;;;;;5093825;28;20040;-82
2022/03/22 07:34:07;;;;;;;3.10;2.80;;;21.90;31.70;;;;;;5092641;28;20051;-82
2022/03/22 07:36:33;;;;;;;3.08;2.75;;;22.00;31.60;;;;;;5094218;28;20047;-82
2022/03/22 07:39:00;;;;;;;3.00;2.70;;;22.00;31.60;;;;;;5075481;28;20071;-81
2022/03/22 07:41:26;;;;;;;3.45;2.85;;;22.00;31.50;;;;;;5093627;28;20060;-82
2022/03/22 07:43:54;;;;;;;2.55;2.35;;;22.10;31.50;;;;;;5093618;28;20075;-81
2022/03/22 07:46:20;;;;;;;2.60;2.40;;;22.10;31.50;;;;;;5075375;28;20047;-82
2022/03/22 07:48:46;;;;;;;2.85;2.47;;;22.10;31.60;;;;;;5093663;28;20056;-82
2022/03/22 07:53:56;;;;;;;2.67;2.47;;;22.00;31.60;;;;;;5093630;28;20503;-82
2022/03/22 07:56:21;;;;;;;3.03;2.65;;;22.10;31.50;;;;;;5075871;28;20161;-82
2022/03/22 07:58:47;;;;;;;3.50;3.20;;;22.00;31.50;;;;;;5093775;28;20492;-82
2022/03/22 08:01:13;;;;;;;3.20;2.90;;;22.00;31.50;;;;;;5093498;28;20069;-82
2022/03/22 08:03:38;;;;;;;3.20;2.90;;;22.00;31.60;;;;;;5093597;28;20048;-82
2022/03/22 08:06:07;;;;;;;3.20;2.90;;;22.00;31.60;;;;;;5093720;28;20094;-82
2022/03/22 08:08:33;;;;;;;3.53;3.22;;;22.00;31.60;;;;;;5072877;28;20052;-82
2022/03/22 08:10:59;;;;;;;3.33;2.85;;;22.00;31.60;;;;;;5091928;28;20063;-82
2022/03/22 08:13:26;;;;;;;3.10;2.80;;;22.00;31.60;;;;;;5093263;28;20063;-81
2022/03/22 08:15:51;;;;;;;3.10;2.80;;;22.00;31.60;;;;;;5075177;28;20083;-82
2022/03/22 08:18:17;;;;;;;3.22;2.92;;;22.00;31.60;;;;;;5075000;28;20078;-82
2022/03/22 08:20:43;;;;;;;2.88;2.67;;;22.00;32.10;;;;;;5073992;28;20056;-82
2022/03/22 08:23:10;;;;;;;3.10;2.80;;;22.00;31.60;;;;;;5091919;28;20544;-82
2022/03/22 08:25:39;;;;;;;3.42;3.13;;;21.90;31.60;;;;;;5073023;28;20084;-82
2022/03/22 08:28:08;;;;;;;3.35;3.05;;;21.90;31.70;;;;;;5092477;28;20138;-82
2022/03/22 08:30:36;;;;;;;3.22;2.92;;;21.90;31.60;;;;;;5057874;28;20078;-82
2022/03/22 08:33:07;;;;;;;3.35;2.72;;;21.90;31.60;;;;;;5093169;28;20060;-82
2022/03/22 08:35:35;;;;;;;3.00;2.77;;;21.90;31.70;;;;;;5093166;28;20495;-82
2022/03/22 08:38:02;;;;;;;3.15;2.85;;;21.90;31.70;;;;;;5093013;28;20138;-82
2022/03/22 08:40:27;;;;;;;3.03;2.75;;;21.90;31.70;;;;;;5092513;28;20059;-82
2022/03/22 08:42:53;;;;;;;2.78;2.55;;;21.90;31.80;;;;;;5074560;28;20113;-82
2022/03/22 08:45:25;;;;;;;3.30;3.00;;;21.90;31.80;;;;;;5073570;28;20121;-82
2022/03/22 08:47:52;;;;;;;3.10;2.80;;;21.90;31.80;;;;;;5074786;28;20400;-82
2022/03/22 08:50:21;;;;;;;3.10;2.70;;;21.80;31.80;;;;;;5072701;28;20059;-82
2022/03/22 08:52:48;;;;;;;3.10;2.80;;;21.80;31.90;;;;;;5092243;28;20059;-82
2022/03/22 08:55:18;;;;;;;3.20;2.90;;;21.80;31.90;;;;;;5092646;28;20201;-82
2022/03/22 08:57:46;;;;;;;2.92;2.63;;;21.80;31.90;;;;;;5092815;28;20086;-82
2022/03/22 09:00:13;;;;;;;3.05;2.80;;;21.80;31.90;;;;;;5056170;28;20041;-82
2022/03/22 09:02:40;;;;;;;2.88;2.50;;;21.80;31.90;;;;;;5091840;28;20537;-82
2022/03/22 09:07:52;;;;;;;3.30;3.00;;;21.70;31.90;;;;;;5092611;28;20077;-82
2022/03/22 09:10:20;;;;;;;3.45;3.15;;;21.70;32.00;;;;;;5057107;28;20056;-82
2022/03/22 09:12:47;;;;;;;3.25;2.95;;;21.70;32.00;;;;;;5072816;28;20049;-82
2022/03/22 09:15:14;;;;;;;2.90;2.50;;;21.60;32.00;;;;;;5072397;28;20131;-82
2022/03/22 09:17:41;;;;;;;3.28;2.97;;;21.60;32.00;;;;;;5057097;28;20051;-82
2022/03/22 09:20:08;;;;;;;2.45;2.22;;;21.60;32.00;;;;;;5073936;28;20150;-82
2022/03/22 09:22:34;;;;;;;3.13;2.83;;;21.60;32.10;;;;;;5072653;28;20479;-82
2022/03/22 09:25:00;;;;;;;3.03;2.72;;;21.60;32.10;;;;;;5074346;28;20090;-82
2022/03/22 09:27:26;;;;;;;3.08;2.78;;;21.60;32.10;;;;;;5092094;28;20139;-82
2022/03/22 09:29:51;;;;;;;2.97;2.67;;;21.60;32.10;;;;;;5074086;28;20484;-82
2022/03/22 09:32:17;;;;;;;3.03;2.72;;;21.60;32.10;;;;;;5073631;28;20087;-82
2022/03/22 09:34:43;;;;;;;3.33;2.92;;;21.60;32.10;;;;;;5073768;28;20055;-82
2022/03/22 09:37:09;;;;;;;3.13;2.90;;;21.50;32.10;;;;;;5091671;28;20052;-82
2022/03/22 09:39:35;;;;;;;2.85;2.60;;;21.50;32.10;;;;;;5092218;28;20048;-82
2022/03/22 09:42:06;;;;;;;3.80;3.03;;;21.50;32.10;;;;;;5095285;28;20060;-81
2022/03/22 09:44:33;;;;;;;2.80;2.60;;;21.50;32.10;;;;;;5060293;28;20079;-82
2022/03/22 09:47:00;;;;;;;3.42;2.90;;;21.50;32.20;;;;;;5095389;28;20060;-83
2022/03/22 09:49:27;;;;;;;3.35;3.05;;;21.50;32.20;;;;;;5076786;28;20063;-82
2022/03/22 09:51:53;;;;;;;3.30;3.00;;;21.50;32.20;;;;;;5095298;28;20543;-82
2022/03/22 09:54:22;;;;;;;3.22;2.92;;;21.50;32.30;;;;;;5095242;28;20076;-81
2022/03/22 09:56:49;;;;;;;2.97;2.78;;;21.50;32.30;;;;;;5095301;28;20059;-81
2022/03/22 09:59:15;;;;;;;3.50;2.88;;;21.50;32.30;;;;;;5095036;28;20055;-83
2022/03/22 10:01:41;;;;;;;2.97;2.72;;;21.50;32.30;;;;;;5077211;28;20060;-84
2022/03/22 10:04:12;;;;;;;2.90;2.60;;;21.40;32.20;;;;;;5095272;28;20055;-84
2022/03/22 10:06:38;;;;;;;;;;;21.40;32.30;;;;;;5077555;28;20060;-82
2022/03/22 10:09:05;;;;;;;2.50;2.30;;;21.40;32.30;;;;;;5095257;28;19916;-82
2022/03/22 10:11:39;;;;;;;3.20;2.90;;;21.40;32.20;;;;;;5094786;28;20183;-81
2022/03/22 10:14:08;;;;;;;3.35;3.03;;;21.40;32.30;;;;;;5076683;28;20412;-81
2022/03/22 10:16:51;;;;;;;3.42;2.85;;;21.40;32.30;;;;;;5076527;28;20059;-82
2022/03/22 10:19:25;;;;;;;2.70;2.47;;;21.40;32.40;;;;;;5076676;28;20464;-81
2022/03/22 10:21:53;;;;;;;3.20;2.60;;;21.40;32.40;;;;;;5076911;28;20115;-81
2022/03/22 10:24:19;;;;;;;3.13;2.83;;;21.40;32.40;;;;;;5093525;28;20059;-81
2022/03/22 10:26:46;;;;;;;3.33;3.00;;;21.40;32.30;;;;;;5094849;28;20043;-82
2022/03/22 10:29:13;;;;;;;3.03;2.72;;;21.40;32.30;;;;;;5094909;28;20051;-81
2022/03/22 10:31:40;;;;;;;3.30;2.97;;;21.40;32.30;;;;;;5094361;28;20044;-81
2022/03/22 10:34:09;;;;;;;3.08;2.78;;;21.40;32.40;;;;;;5095047;28;20476;-81
2022/03/22 10:36:36;;;;;;;3.28;2.90;;;21.40;32.40;;;;;;5076755;28;20051;-80
2022/03/22 10:39:06;;;;;;;4.75;3.20;;;21.40;32.30;;;;;;5094577;28;20135;-80
2022/03/22 10:41:37;;;;;;;3.05;2.75;;;21.40;32.40;;;;;;5094884;28;20047;-82
2022/03/22 10:44:07;;;;;;;;;;;21.40;32.40;;;;;;5094307;28;20102;-81
2022/03/22 10:46:34;;;;;;;3.38;3.05;;;21.40;32.40;;;;;;5094691;28;19916;-80
2022/03/22 10:49:06;;;;;;;2.75;2.55;;;21.40;32.40;;;;;;5076080;28;20060;-77
2022/03/22 10:51:46;;;;;;;3.33;3.00;;;21.40;32.30;;;;;;5074877;28;20048;-77
2022/03/22 10:54:16;;;;;;;3.73;3.27;;;21.40;32.40;;;;;;5094449;28;20134;-78
2022/03/22 10:56:51;;;;;;;3.58;3.15;;;21.40;32.40;;;;;;5094760;28;20290;-77
2022/03/22 10:59:27;;;;;;;3.40;3.10;;;21.30;32.30;;;;;;5094677;28;20087;-77
2022/03/22 11:01:55;;;;;;;4.47;3.50;;;21.30;32.30;;;;;;5076335;28;20052;-78
2022/03/22 11:04:22;;;;;;;8.88;4.13;;;21.30;32.30;;;;;;5094174;28;20492;-78
2022/03/22 11:06:48;;;;;;;3.70;3.38;;;21.30;32.30;;;;;;5093940;28;20056;-78
2022/03/22 11:09:15;;;;;;;4.07;3.50;;;21.30;32.30;;;;;;5094175;28;20056;-77
2022/03/22 11:11:43;;;;;;;3.83;3.30;;;21.30;32.20;;;;;;5075883;28;20074;-76
2022/03/22 11:14:13;;;;;;;4.10;3.70;;;21.30;32.20;;;;;;5094029;28;20139;-77
2022/03/22 11:16:40;;;;;;;5.10;3.75;;;21.30;32.20;;;;;;5075886;28;20082;-77
2022/03/22 11:19:07;;;;;;;5.35;4.25;;;21.40;32.20;;;;;;5075434;28;20056;-77
2022/03/22 11:21:32;;;;;;;5.85;3.90;;;21.30;32.10;;;;;;5093738;28;20056;-76
2022/03/22 11:24:12;;;;;;;6.13;4.40;;;21.30;32.10;;;;;;5093985;28;20426;-77
2022/03/22 11:26:51;;;;;;;6.90;4.28;;;21.30;32.10;;;;;;5094196;28;20492;-77
2022/03/22 11:29:17;;;;;;;5.38;3.60;;;21.30;32.10;;;;;;5093988;28;20143;-77
2022/03/22 11:34:08;;;;;;;4.43;3.83;;;21.40;32.20;;;;;;5093861;28;20058;-78
2022/03/22 11:34:30;;;;;;;4.03;3.63;;;21.40;32.10;;;;;;5094085;28;20072;-77
2022/03/22 11:36:58;;;;;;;4.38;3.55;;;21.40;32.10;;;;;;5093728;28;20087;-77
2022/03/22 11:42:18;;;;;;;4.60;3.80;;;21.40;32.10;;;;;;5093973;28;20102;-77
2022/03/22 11:44:56;;;;;;;6.43;4.00;;;21.40;32.10;;;;;;5094014;28;20072;-77
2022/03/22 11:47:22;;;;;;;6.93;4.40;;;21.40;32.10;;;;;;5075793;28;20056;-76
2022/03/22 11:49:58;;;;;;;5.43;4.25;;;21.40;32.20;;;;;;5074683;28;20066;-76
2022/03/22 11:52:33;;;;;;;5.90;4.00;;;21.40;32.10;;;;;;5091933;28;20055;-77
2022/03/22 11:55:09;;;;;;;4.88;3.90;;;21.40;32.10;;;;;;5091250;28;20102;-77
2022/03/22 11:57:53;;;;;;;4.70;4.15;;;21.40;32.10;;;;;;5091586;28;20187;-76
2022/03/22 12:00:42;;;;;;;4.72;3.70;;;21.30;32.10;;;;;;5057475;28;20056;-76
2022/03/22 12:03:10;;;;;;;4.00;3.60;;;21.30;32.10;;;;;;5073222;28;20443;-76
2022/03/22 12:05:37;;;;;;;7.70;4.57;;;21.30;32.10;;;;;;5092240;28;20066;-76
2022/03/22 12:08:11;;;;;;;4.97;3.40;;;21.30;32.10;;;;;;5092381;28;20052;-77
2022/03/22 12:10:39;;;;;;;5.25;3.67;;;21.30;32.10;;;;;;5074748;28;20361;-77
2022/03/22 12:13:06;;;;;;;4.38;3.50;;;21.30;32.20;;;;;;5093073;28;20086;-77
2022/03/22 12:15:32;;;;;;;5.60;4.18;;;21.30;32.20;;;;;;5093200;28;20083;-77
2022/03/22 12:17:57;;;;;;;5.38;4.22;;;21.30;32.20;;;;;;5092789;28;20467;-77
2022/03/22 12:20:24;;;;;;;4.30;3.67;;;21.30;32.20;;;;;;5093137;28;20135;-77
2022/03/22 12:23:03;;;;;;;4.05;3.65;;;21.30;32.10;;;;;;5093111;28;20384;-77
2022/03/22 12:25:31;;;;;;;5.43;4.47;;;21.30;32.10;;;;;;5075153;28;20043;-77
2022/03/22 12:27:58;;;;;;;5.63;4.22;;;21.30;32.10;;;;;;5073820;28;20052;-77
2022/03/22 12:30:26;;;;;;;4.93;4.40;;;21.30;32.10;;;;;;5073422;28;20052;-77
2022/03/22 12:32:54;;;;;;;4.43;4.00;;;21.30;32.10;;;;;;5091757;28;20487;-77
2022/03/22 12:35:20;;;;;;;5.82;3.72;;;21.30;32.10;;;;;;5074646;28;20135;-77
2022/03/22 12:37:48;;;;;;;4.65;3.95;;;21.30;32.10;;;;;;5092783;28;20048;-77
2022/03/22 12:40:16;;;;;;;4.72;3.90;;;21.30;32.10;;;;;;5072976;28;20475;-77
2022/03/22 12:42:42;;;;;;;5.53;4.65;;;21.30;32.10;;;;;;5093102;28;20134;-77
2022/03/22 12:45:10;;;;;;;4.28;3.55;;;21.30;32.20;;;;;;5092861;28;20453;-77
2022/03/22 12:47:37;;;;;;;4.28;3.88;;;21.30;32.20;;;;;;5092289;28;20060;-76
2022/03/22 12:50:04;;;;;;;4.85;4.13;;;21.30;32.10;;;;;;5092450;28;20048;-77
2022/03/22 12:52:30;;;;;;;4.85;3.85;;;21.30;32.20;;;;;;5092530;28;20066;-77
2022/03/22 12:54:56;;;;;;;5.18;3.90;;;21.30;32.20;;;;;;5092488;28;20048;-77
2022/03/22 12:57:22;;;;;;;4.85;4.10;;;21.30;32.20;;;;;;5073941;28;20056;-77
2022/03/22 12:59:48;;;;;;;4.65;3.63;;;21.30;32.10;;;;;;5092305;28;20079;-77
2022/03/22 13:02:14;;;;;;;6.25;4.10;;;21.30;32.10;;;;;;5092543;28;20093;-77
2022/03/22 13:04:49;;;;;;;4.95;4.13;;;21.30;32.10;;;;;;5091960;28;20048;-78
2022/03/22 13:07:24;;;;;;;4.90;3.83;;;21.30;32.10;;;;;;5092154;28;20087;-77
2022/03/22 13:12:37;;;;;;;3.75;3.40;;;21.30;32.10;;;;;;5092169;28;20060;-78
2022/03/22 13:15:05;;;;;;;5.80;4.22;;;21.30;32.10;;;;;;5073681;28;20047;-77
2022/03/22 13:17:34;;;;;;;5.32;4.50;;;21.30;32.10;;;;;;5072597;28;20496;-76
2022/03/22 13:20:03;;;;;;;4.75;3.97;;;21.30;32.10;;;;;;5092039;28;20081;-75
2022/03/22 13:22:29;;;;;;;6.20;4.15;;;21.30;32.10;;;;;;5091493;28;20507;-75